createdAt,value
2022-08-17T00:01:51.869Z,99273.25
2022-08-17T00:04:22.362Z,99265.41
2022-08-17T00:06:54.186Z,99264.38
2022-08-17T00:09:32.233Z,99269.31
2022-08-17T00:12:42.216Z,99263.25
2022-08-17T00:15:10.617Z,99261.53
2022-08-17T00:17:44.505Z,99256.09
2022-08-17T00:20:17.553Z,99262.53
2022-08-17T00:23:04.805Z,99260.16
2022-08-17T00:25:35.174Z,99256.34
2022-08-17T00:28:07.261Z,99250.75
2022-08-17T00:30:51.086Z,99254.03
2022-08-17T00:33:26.346Z,99245.75
2022-08-17T00:35:58.205Z,99258.88
2022-08-17T00:38:28.271Z,99245.94
2022-08-17T00:41:03.124Z,99245.41
2022-08-17T00:43:42.824Z,99243.59
2022-08-17T00:46:20.868Z,99239.31
2022-08-17T00:48:52.096Z,99245.41
2022-08-17T00:51:38.128Z,99246.06
2022-08-17T00:54:21.409Z,99254.78
2022-08-17T00:56:53.720Z,99260.38
2022-08-17T00:59:28.799Z,99263.13
2022-08-17T01:01:56.861Z,99257.03
2022-08-17T01:04:30.739Z,99259.25
2022-08-17T01:07:06.786Z,99259.41
2022-08-17T01:09:37.768Z,99256.13
2022-08-17T01:12:11.186Z,99267.69
2022-08-17T01:14:46.504Z,99254.63
2022-08-17T01:17:17.985Z,99248.22
2022-08-17T01:19:50.031Z,99261.63
2022-08-17T01:22:25.515Z,99262.16
2022-08-17T01:25:09.357Z,99257.31
2022-08-17T01:27:44.640Z,99265.72
2022-08-17T01:30:58.839Z,99261.56
2022-08-17T01:33:11.823Z,99264.47
2022-08-17T01:35:42.528Z,99266.88
2022-08-17T01:41:09.249Z,99259.41
2022-08-17T01:43:55.285Z,99253.97
2022-08-17T01:46:34.022Z,99255.84
2022-08-17T01:49:22.981Z,99254.41
2022-08-17T01:51:58.746Z,99247.84
2022-08-17T01:54:35.419Z,99245.69
2022-08-17T01:57:11.201Z,99247.56
2022-08-17T01:59:42.659Z,99245.91
2022-08-17T02:02:11.492Z,99242.41
2022-08-17T02:05:03.430Z,99249.16
2022-08-17T02:07:48.000Z,99247.72
2022-08-17T02:10:34.261Z,99241.97
2022-08-17T02:13:07.311Z,99244.50
2022-08-17T02:16:04.861Z,99236.09
2022-08-17T02:18:43.762Z,99239.31
2022-08-17T02:21:13.790Z,99234.38
2022-08-17T02:23:51.162Z,99237.47
2022-08-17T02:26:26.775Z,99231.09
2022-08-17T02:28:56.270Z,99232.56
2022-08-17T02:31:26.947Z,99248.50
2022-08-17T02:34:28.640Z,99241.97
2022-08-17T02:37:00.070Z,99248.13
2022-08-17T02:39:35.967Z,99247.03
2022-08-17T02:42:07.926Z,99245.84
2022-08-17T02:44:40.244Z,99240.59
2022-08-17T02:47:21.143Z,99239.06
2022-08-17T02:49:54.338Z,99234.56
2022-08-17T02:52:43.825Z,99240.31
2022-08-17T02:55:18.632Z,99254.78
2022-08-17T02:57:51.380Z,99244.13
2022-08-17T03:00:29.311Z,99246.06
2022-08-17T03:03:11.464Z,99244.81
2022-08-17T03:05:42.599Z,99252.91
2022-08-17T03:08:13.149Z,99248.38
2022-08-17T03:10:41.727Z,99250.41
2022-08-17T03:13:13.112Z,99249.88
2022-08-17T03:15:47.281Z,99257.97
2022-08-17T03:18:26.375Z,99257.56
2022-08-17T03:21:05.868Z,99245.44
2022-08-17T03:23:34.419Z,99248.19
2022-08-17T03:26:04.948Z,99258.72
2022-08-17T03:28:42.432Z,99258.28
2022-08-17T03:31:19.708Z,99271.16
2022-08-17T03:33:49.677Z,99270.56
2022-08-17T03:36:21.577Z,99266.81
2022-08-17T03:38:59.024Z,99274.22
2022-08-17T03:41:31.260Z,99274.22
2022-08-17T03:44:05.560Z,99273.16
2022-08-17T03:46:57.946Z,99278.06
2022-08-17T03:49:50.711Z,99279.78
2022-08-17T03:52:38.745Z,99284.31
2022-08-17T03:55:36.161Z,99283.69
2022-08-17T03:58:05.841Z,99295.19
2022-08-17T04:00:39.661Z,99288.28
2022-08-17T04:03:07.637Z,99290.78
2022-08-17T04:05:40.822Z,99285.34
2022-08-17T04:08:38.138Z,99286.38
2022-08-17T04:11:13.343Z,99292.09
2022-08-17T04:13:43.686Z,99281.63
2022-08-17T04:16:20.622Z,99288.28
2022-08-17T04:18:53.558Z,99282.16
2022-08-17T04:21:29.354Z,99289.09
2022-08-17T04:23:58.259Z,99294.00
2022-08-17T04:26:53.001Z,99290.13
2022-08-17T04:29:28.538Z,99295.03
2022-08-17T04:32:21.746Z,99292.38
2022-08-17T04:35:16.963Z,99306.06
2022-08-17T04:37:53.766Z,99302.78
2022-08-17T04:40:42.639Z,99315.13
2022-08-17T04:43:18.745Z,99313.75
2022-08-17T04:45:56.296Z,99311.84
2022-08-17T04:48:37.266Z,99314.44
2022-08-17T04:51:14.516Z,99326.25
2022-08-17T04:53:56.406Z,99326.94
2022-08-17T04:56:32.670Z,99328.34
2022-08-17T04:59:23.844Z,99330.84
2022-08-17T05:01:57.118Z,99329.50
2022-08-17T05:04:34.907Z,99330.16
2022-08-17T05:07:04.413Z,99332.19
2022-08-17T05:09:32.683Z,99322.19
2022-08-17T05:12:06.152Z,99322.38
2022-08-17T05:14:39.689Z,99326.16
2022-08-17T05:17:11.116Z,99326.38
2022-08-17T05:19:40.368Z,99323.81
2022-08-17T05:22:11.742Z,99325.66
2022-08-17T05:24:53.848Z,99333.91
2022-08-17T05:27:32.920Z,99331.34
2022-08-17T05:30:07.799Z,99331.00
2022-08-17T05:35:39.133Z,99336.78
2022-08-17T05:38:30.849Z,99330.81
2022-08-17T05:41:09.729Z,99340.50
2022-08-17T05:48:05.577Z,99346.78
2022-08-17T05:50:49.330Z,99343.78
2022-08-17T05:53:32.953Z,99355.66
2022-08-17T05:57:03.384Z,99357.41
2022-08-17T06:00:08.536Z,99358.69
2022-08-17T06:03:14.610Z,99364.13
2022-08-17T06:05:45.097Z,99359.16
2022-08-17T06:08:40.201Z,99358.16
2022-08-17T06:11:45.166Z,99360.50
2022-08-17T06:14:28.324Z,99356.31
2022-08-17T06:17:10.246Z,99357.63
2022-08-17T06:19:52.294Z,99348.66
2022-08-17T06:22:27.540Z,99351.53
2022-08-17T06:25:11.597Z,99356.75
2022-08-17T06:28:02.367Z,99351.97
2022-08-17T06:30:59.271Z,99359.06
2022-08-17T06:33:32.336Z,99357.88
2022-08-17T06:36:09.517Z,99356.41
2022-08-17T06:39:16.543Z,99341.88
2022-08-17T06:43:00.819Z,99334.44
2022-08-17T06:45:17.246Z,99343.53
2022-08-17T06:48:17.315Z,99347.63
2022-08-17T06:54:50.993Z,99363.13
2022-08-17T06:57:50.895Z,99359.88
2022-08-17T07:00:24.253Z,99364.44
2022-08-17T07:03:02.620Z,99361.38
2022-08-17T07:05:57.433Z,99364.47
2022-08-17T07:09:19.745Z,99366.75
2022-08-17T07:11:55.251Z,99355.63
2022-08-17T07:14:37.943Z,99372.13
2022-08-17T07:17:13.295Z,99374.53
2022-08-17T07:23:05.736Z,99371.28
2022-08-17T07:25:33.887Z,99370.50
2022-08-17T07:28:06.999Z,99366.50
2022-08-17T07:30:51.575Z,99375.22
2022-08-17T07:33:27.614Z,99368.25
2022-08-17T07:35:58.275Z,99375.84
2022-08-17T07:38:37.875Z,99380.78
2022-08-17T07:41:07.838Z,99381.38
2022-08-17T07:43:49.932Z,99385.16
2022-08-17T07:46:51.116Z,99382.31
2022-08-17T07:49:31.924Z,99389.09
2022-08-17T07:52:47.433Z,99390.78
2022-08-17T07:54:51.912Z,99392.63
2022-08-17T07:57:19.510Z,99384.47
2022-08-17T08:00:02.052Z,99382.59
2022-08-17T08:02:42.413Z,99383.09
2022-08-17T08:05:48.547Z,99382.66
2022-08-17T08:08:55.832Z,99386.38
2022-08-17T08:11:33.677Z,99390.53
2022-08-17T08:14:31.959Z,99387.59
2022-08-17T08:17:05.504Z,99389.13
2022-08-17T08:19:35.975Z,99385.69
2022-08-17T08:22:13.123Z,99390.16
2022-08-17T08:25:04.540Z,99379.94
2022-08-17T08:27:49.816Z,99383.06
2022-08-17T08:30:28.429Z,99386.56
2022-08-17T08:33:32.296Z,99387.50
2022-08-17T08:36:59.274Z,99386.00
2022-08-17T08:39:34.644Z,99375.81
2022-08-17T08:42:20.922Z,99367.63
2022-08-17T08:45:17.106Z,99377.69
2022-08-17T08:48:12.745Z,99365.78
2022-08-17T08:51:12.563Z,99375.53
2022-08-17T08:54:02.306Z,99370.69
2022-08-17T08:57:22.306Z,99366.56
2022-08-17T09:00:07.593Z,99373.03
2022-08-17T09:03:00.137Z,99365.97
2022-08-17T09:05:53.599Z,99371.66
2022-08-17T09:08:37.010Z,99364.25
2022-08-17T09:11:17.666Z,99368.56
2022-08-17T09:14:21.272Z,99381.03
2022-08-17T09:17:19.976Z,99371.78
2022-08-17T09:20:28.130Z,99368.47
2022-08-17T09:23:19.934Z,99374.19
2022-08-17T09:26:10.466Z,99371.72
2022-08-17T09:28:41.509Z,99370.94
2022-08-17T09:31:18.149Z,99379.63
2022-08-17T09:33:48.724Z,99384.28
2022-08-17T09:36:39.538Z,99364.09
2022-08-17T09:39:17.613Z,99373.91
2022-08-17T09:42:00.297Z,99371.66
2022-08-17T09:45:09.967Z,99380.06
2022-08-17T09:47:56.006Z,99375.53
2022-08-17T09:51:05.262Z,99361.81
2022-08-17T09:53:34.548Z,99371.72
2022-08-17T09:56:28.676Z,99369.91
2022-08-17T09:59:41.996Z,99360.69
2022-08-17T10:02:22.798Z,99359.03
2022-08-17T10:05:08.934Z,99362.78
2022-08-17T10:07:54.280Z,99367.81
2022-08-17T10:10:43.490Z,99370.34
2022-08-17T10:13:36.024Z,99362.31
2022-08-17T10:16:26.653Z,99365.00
2022-08-17T10:19:16.281Z,99354.97
2022-08-17T10:22:14.497Z,99363.53
2022-08-17T10:25:23.677Z,99367.81
2022-08-17T10:28:00.048Z,99363.66
2022-08-17T10:30:34.981Z,99361.75
2022-08-17T10:33:14.556Z,99362.84
2022-08-17T10:35:57.234Z,99371.53
2022-08-17T10:38:42.421Z,99370.44
2022-08-17T10:41:53.001Z,99362.66
2022-08-17T10:44:41.216Z,99362.75
2022-08-17T10:48:21.029Z,99358.25
2022-08-17T10:51:36.614Z,99365.78
2022-08-17T10:54:25.895Z,99355.31
2022-08-17T10:56:56.932Z,99354.47
2022-08-17T10:59:37.085Z,99356.16
2022-08-17T11:02:20.813Z,99352.03
2022-08-17T11:05:09.421Z,99347.84
2022-08-17T11:07:48.927Z,99344.00
2022-08-17T11:10:40.681Z,99336.34
2022-08-17T11:13:30.695Z,99333.84
2022-08-17T11:16:09.185Z,99343.66
2022-08-17T11:19:13.568Z,99336.81
2022-08-17T11:22:06.819Z,99342.56
2022-08-17T11:24:49.269Z,99330.38
2022-08-17T11:27:33.400Z,99336.25
2022-08-17T11:30:51.196Z,99344.00
2022-08-17T11:33:29.869Z,99341.81
2022-08-17T11:36:19.464Z,99348.34
2022-08-17T11:39:06.187Z,99347.47
2022-08-17T11:41:58.312Z,99340.50
2022-08-17T11:44:45.556Z,99335.06
2022-08-17T11:47:35.331Z,99338.84
2022-08-17T11:50:55.484Z,99341.19
2022-08-17T11:53:43.084Z,99330.88
2022-08-17T11:56:48.827Z,99320.44
2022-08-17T11:59:50.618Z,99326.25
2022-08-17T12:02:21.907Z,99330.91
2022-08-17T12:05:17.719Z,99318.75
2022-08-17T12:08:04.456Z,99322.69
2022-08-17T12:10:36.416Z,99318.75
2022-08-17T12:13:13.465Z,99319.59
2022-08-17T12:15:48.800Z,99314.88
2022-08-17T12:18:21.972Z,99308.03
2022-08-17T12:21:18.716Z,99307.47
2022-08-17T12:24:16.379Z,99314.28
2022-08-17T12:26:58.465Z,99310.25
2022-08-17T12:29:35.579Z,99303.44
2022-08-17T12:32:13.346Z,99297.31
2022-08-17T12:34:44.838Z,99294.72
2022-08-17T12:37:26.623Z,99294.19
2022-08-17T12:40:08.815Z,99286.41
2022-08-17T12:42:39.507Z,99298.72
2022-08-17T12:45:21.119Z,99292.72
2022-08-17T12:47:49.036Z,99293.81
2022-08-17T12:50:29.299Z,99291.44
2022-08-17T12:53:02.080Z,99290.50
2022-08-17T12:55:37.372Z,99284.66
2022-08-17T12:58:15.088Z,99287.13
2022-08-17T13:00:50.252Z,99285.34
2022-08-17T13:03:25.890Z,99276.22
2022-08-17T13:05:57.139Z,99280.69
2022-08-17T13:08:38.065Z,99269.75
2022-08-17T13:11:09.587Z,99276.81
2022-08-17T13:13:43.965Z,99282.00
2022-08-17T13:16:17.209Z,99282.53
2022-08-17T13:19:06.058Z,99282.53
2022-08-17T13:21:36.305Z,99280.81
2022-08-17T13:24:11.367Z,99270.22
2022-08-17T13:27:07.851Z,99267.00
2022-08-17T13:30:15.233Z,99268.78
2022-08-17T13:32:49.120Z,99269.81
2022-08-17T13:35:43.419Z,99264.19
2022-08-17T13:38:39.569Z,99269.94
2022-08-17T13:41:07.720Z,99269.97
2022-08-17T13:43:45.079Z,99264.69
2022-08-17T13:46:26.738Z,99241.44
2022-08-17T13:48:58.967Z,99255.56
2022-08-17T13:51:33.239Z,99258.34
2022-08-17T13:54:04.584Z,99263.03
2022-08-17T13:56:47.318Z,99254.66
2022-08-17T13:59:53.880Z,99259.38
2022-08-17T14:02:17.698Z,99257.56
2022-08-17T14:04:50.226Z,99251.72
2022-08-17T14:07:20.050Z,99246.56
2022-08-17T14:09:55.605Z,99256.03
2022-08-17T14:12:27.121Z,99255.63
2022-08-17T14:14:56.516Z,99243.88
2022-08-17T14:17:25.358Z,99250.03
2022-08-17T14:19:55.118Z,99256.69
2022-08-17T14:22:33.120Z,99254.81
2022-08-17T14:25:03.145Z,99253.38
2022-08-17T14:27:41.643Z,99250.50
2022-08-17T14:30:26.713Z,99249.91
2022-08-17T14:33:02.284Z,99252.16
2022-08-17T14:35:30.257Z,99239.16
2022-08-17T14:37:58.236Z,99248.28
2022-08-17T14:40:26.590Z,99238.06
2022-08-17T14:43:12.842Z,99247.47
2022-08-17T14:45:41.373Z,99240.72
2022-08-17T14:48:08.851Z,99246.56
2022-08-17T14:50:40.719Z,99244.34
2022-08-17T14:53:15.714Z,99241.16
2022-08-17T14:55:45.801Z,99234.00
2022-08-17T14:58:14.987Z,99242.97
2022-08-17T15:00:43.842Z,99241.50
2022-08-17T15:03:11.923Z,99230.94
2022-08-17T15:05:39.826Z,99243.50
2022-08-17T15:08:07.382Z,99245.06
2022-08-17T15:10:35.346Z,99235.59
2022-08-17T15:13:08.379Z,99234.06
2022-08-17T15:15:40.647Z,99245.06
2022-08-17T15:18:10.385Z,99244.28
2022-08-17T15:20:38.914Z,99234.91
2022-08-17T15:23:18.775Z,99236.13
2022-08-17T15:25:48.453Z,99244.84
2022-08-17T15:28:16.445Z,99226.38
2022-08-17T15:30:45.144Z,99244.63
2022-08-17T15:33:18.848Z,99241.59
2022-08-17T15:35:53.555Z,99245.53
2022-08-17T15:38:22.994Z,99245.69
2022-08-17T15:40:51.817Z,99238.13
2022-08-17T15:43:28.132Z,99234.84
2022-08-17T15:46:14.137Z,99244.00
2022-08-17T15:48:49.205Z,99245.63
2022-08-17T15:51:35.107Z,99236.22
2022-08-17T15:54:18.670Z,99238.72
2022-08-17T15:56:50.524Z,99226.88
2022-08-17T15:59:18.512Z,99232.75
2022-08-17T16:03:15.345Z,99220.38
2022-08-17T16:04:35.013Z,99227.66
2022-08-17T16:07:07.299Z,99223.97
2022-08-17T16:09:35.040Z,99225.06
2022-08-17T16:12:10.820Z,99227.59
2022-08-17T16:14:38.538Z,99238.28
2022-08-17T16:17:38.380Z,99232.25
2022-08-17T16:19:55.907Z,99234.25
2022-08-17T16:22:38.582Z,99231.50
2022-08-17T16:25:10.423Z,99228.28
2022-08-17T16:27:38.119Z,99234.91
2022-08-17T16:30:07.827Z,99241.13
2022-08-17T16:32:36.387Z,99237.16
2022-08-17T16:35:06.197Z,99236.28
2022-08-17T16:37:35.012Z,99230.41
2022-08-17T16:40:09.626Z,99230.22
2022-08-17T16:42:38.233Z,99233.50
2022-08-17T16:45:09.997Z,99233.91
2022-08-17T16:47:38.380Z,99238.34
2022-08-17T16:50:11.651Z,99238.06
2022-08-17T16:52:44.001Z,99238.94
2022-08-17T16:55:16.677Z,99236.25
2022-08-17T16:58:31.356Z,99242.88
2022-08-17T17:01:29.609Z,99241.97
2022-08-17T17:04:03.312Z,99238.63
2022-08-17T17:06:50.547Z,99249.66
2022-08-17T17:09:34.357Z,99244.06
2022-08-17T17:12:12.667Z,99248.38
2022-08-17T17:14:45.837Z,99252.13
2022-08-17T17:17:30.597Z,99254.22
2022-08-17T17:20:09.911Z,99254.78
2022-08-17T17:22:48.164Z,99254.91
2022-08-17T17:25:39.689Z,99259.88
2022-08-17T17:28:42.827Z,99255.47
2022-08-17T17:31:24.226Z,99253.00
2022-08-17T17:34:11.495Z,99265.34
2022-08-17T17:36:54.274Z,99263.22
2022-08-17T17:39:45.994Z,99260.44
2022-08-17T17:42:25.085Z,99253.91
2022-08-17T17:45:18.518Z,99251.06
2022-08-17T17:48:04.307Z,99264.00
2022-08-17T17:50:49.586Z,99260.59
2022-08-17T17:53:43.347Z,99261.03
2022-08-17T17:56:45.410Z,99266.00
2022-08-17T17:59:46.544Z,99266.53
2022-08-17T18:02:52.159Z,99269.56
2022-08-17T18:05:46.994Z,99274.66
2022-08-17T18:08:53.381Z,99277.84
2022-08-17T18:11:25.065Z,99283.78
2022-08-17T18:14:25.297Z,99275.69
2022-08-17T18:17:04.897Z,99297.31
2022-08-17T18:19:33.410Z,99298.69
2022-08-17T18:22:14.013Z,99298.22
2022-08-17T18:24:48.330Z,99299.34
2022-08-17T18:28:00.414Z,99304.75
2022-08-17T18:31:20.515Z,99305.72
2022-08-17T18:34:36.127Z,99301.47
2022-08-17T18:37:46.291Z,99301.09
2022-08-17T18:40:45.862Z,99306.78
2022-08-17T18:43:53.475Z,99314.16
2022-08-17T18:46:37.824Z,99319.09
2022-08-17T18:49:28.358Z,99309.78
2022-08-17T18:52:31.044Z,99312.56
2022-08-17T18:55:05.202Z,99318.13
2022-08-17T18:57:52.077Z,99323.34
2022-08-17T19:00:46.060Z,99320.13
2022-08-17T19:03:15.959Z,99322.38
2022-08-17T19:06:12.453Z,99325.06
2022-08-17T19:08:41.016Z,99329.31
2022-08-17T19:11:36.502Z,99329.81
2022-08-17T19:14:22.376Z,99322.63
2022-08-17T19:20:03.044Z,99325.41
2022-08-17T19:22:58.565Z,99329.00
2022-08-17T19:25:46.800Z,99329.66
2022-08-17T19:28:32.812Z,99334.91
2022-08-17T19:31:19.390Z,99338.81
2022-08-17T19:33:58.053Z,99329.84
2022-08-17T19:36:42.069Z,99332.94
2022-08-17T19:39:38.010Z,99335.38
2022-08-17T19:42:58.133Z,99327.69
2022-08-17T19:46:10.729Z,99330.16
2022-08-17T19:49:33.431Z,99326.41
2022-08-17T19:52:50.354Z,99329.84
2022-08-17T19:55:50.425Z,99332.28
2022-08-17T19:58:37.773Z,99328.03
2022-08-17T20:01:13.794Z,99335.91
2022-08-17T20:13:47.403Z,99338.16
2022-08-17T20:16:40.910Z,99337.81
2022-08-17T20:23:50.595Z,99342.22
2022-08-17T20:26:36.439Z,99344.03
2022-08-17T20:29:17.563Z,99335.19
2022-08-17T20:32:35.322Z,99339.09
2022-08-17T20:35:45.862Z,99331.94
2022-08-17T20:38:45.765Z,99334.88
2022-08-17T20:41:31.017Z,99338.94
2022-08-17T20:44:37.914Z,99335.03
2022-08-17T20:48:07.461Z,99338.75
2022-08-17T20:50:45.082Z,99342.03
2022-08-17T20:53:48.189Z,99341.38
2022-08-17T20:56:44.504Z,99341.75
2022-08-17T20:59:28.373Z,99337.47
2022-08-17T21:02:30.099Z,99343.00
2022-08-17T21:05:06.878Z,99330.56
2022-08-17T21:07:43.087Z,99336.50
2022-08-17T21:10:16.548Z,99331.06
2022-08-17T21:12:56.997Z,99332.97
2022-08-17T21:15:42.585Z,99337.50
2022-08-17T21:22:33.865Z,99337.03
2022-08-17T21:28:36.457Z,99334.19
2022-08-17T21:32:01.146Z,99333.06
2022-08-17T21:35:34.159Z,99328.22
2022-08-17T21:38:16.320Z,99329.78
2022-08-17T21:44:43.686Z,99329.78
2022-08-17T21:47:46.470Z,99329.84
2022-08-17T21:51:26.996Z,99330.78
2022-08-17T21:54:41.391Z,99328.38
2022-08-17T21:58:12.165Z,99322.97
2022-08-17T22:01:33.495Z,99331.53
2022-08-17T22:08:06.045Z,99322.41
2022-08-17T22:11:37.051Z,99324.06
2022-08-17T22:15:21.143Z,99320.78
2022-08-17T22:18:33.911Z,99320.97
2022-08-17T22:21:28.884Z,99323.53
2022-08-17T22:24:28.869Z,99319.22
2022-08-17T22:27:12.807Z,99330.72
2022-08-17T22:29:57.406Z,99325.88
2022-08-17T22:32:57.352Z,99327.31
2022-08-17T22:36:09.990Z,99323.75
2022-08-17T22:39:31.356Z,99332.50
2022-08-17T22:42:19.734Z,99333.31
2022-08-17T22:44:50.379Z,99324.69
2022-08-17T22:47:43.268Z,99337.59
2022-08-17T22:50:37.178Z,99341.72
2022-08-17T22:53:39.120Z,99341.72
2022-08-17T22:56:35.439Z,99350.03
2022-08-17T22:59:32.485Z,99355.53
2022-08-17T23:02:22.404Z,99358.16
2022-08-17T23:05:16.027Z,99347.09
2022-08-17T23:11:16.147Z,99350.63
2022-08-17T23:13:54.807Z,99349.63
2022-08-17T23:16:25.298Z,99354.00
2022-08-17T23:18:56.352Z,99350.84
2022-08-17T23:21:30.670Z,99357.81
2022-08-17T23:24:12.179Z,99367.56
2022-08-17T23:26:59.095Z,99364.81
2022-08-17T23:33:21.460Z,99358.16
2022-08-17T23:35:53.520Z,99351.06
2022-08-17T23:39:02.766Z,99350.66
2022-08-17T23:42:05.389Z,99353.34
2022-08-17T23:44:35.606Z,99358.28
2022-08-17T23:47:05.787Z,99358.78
2022-08-17T23:49:48.567Z,99356.41
2022-08-17T23:52:46.010Z,99357.44
2022-08-17T23:55:20.019Z,99357.44
2022-08-17T23:57:55.253Z,99356.72
